createdAt,value
2022-11-04T00:00:30.570Z,100.00
2022-11-04T00:03:00.793Z,100.00
2022-11-04T00:05:33.354Z,100.00
2022-11-04T00:08:15.831Z,100.00
2022-11-04T00:10:58.684Z,100.00
2022-11-04T00:13:31.410Z,100.00
2022-11-04T00:16:16.896Z,100.00
2022-11-04T00:18:46.878Z,100.00
2022-11-04T00:21:32.284Z,100.00
2022-11-04T00:24:15.155Z,100.00
2022-11-04T00:26:57.670Z,100.00
2022-11-04T00:29:28.184Z,100.00
2022-11-04T00:32:10.635Z,100.00
2022-11-04T00:34:40.608Z,100.00
2022-11-04T00:37:13.283Z,100.00
2022-11-04T00:39:43.288Z,100.00
2022-11-04T00:42:13.364Z,100.00
2022-11-04T00:44:43.407Z,100.00
2022-11-04T00:47:13.433Z,100.00
2022-11-04T00:49:43.478Z,100.00
2022-11-04T00:52:16.022Z,100.00
2022-11-04T00:54:46.297Z,100.00
2022-11-04T00:57:17.853Z,100.00
2022-11-04T00:59:48.196Z,100.00
2022-11-04T01:02:18.586Z,100.00
2022-11-04T01:04:50.186Z,100.00
2022-11-04T01:07:23.052Z,100.00
2022-11-04T01:09:53.211Z,100.00
2022-11-04T01:12:23.157Z,100.00
2022-11-04T01:14:53.302Z,100.00
2022-11-04T01:17:23.303Z,100.00
2022-11-04T01:19:53.305Z,100.00
2022-11-04T01:22:26.165Z,100.00
2022-11-04T01:24:56.168Z,100.00
2022-11-04T01:27:26.252Z,100.00
2022-11-04T01:29:56.224Z,100.00
2022-11-04T01:32:26.459Z,100.00
2022-11-04T01:34:56.444Z,100.00
2022-11-04T01:37:29.551Z,100.00
2022-11-04T01:39:59.504Z,100.00
2022-11-04T01:42:30.358Z,100.00
2022-11-04T01:45:02.650Z,100.00
2022-11-04T01:47:40.301Z,100.00
2022-11-04T01:50:16.856Z,100.00
2022-11-04T01:52:56.155Z,100.00
2022-11-04T01:55:33.322Z,100.00
2022-11-04T01:58:11.838Z,100.00
2022-11-04T02:00:43.329Z,100.00
2022-11-04T02:03:21.029Z,100.00
2022-11-04T02:05:51.359Z,100.00
2022-11-04T02:08:25.308Z,100.00
2022-11-04T02:11:01.912Z,100.00
2022-11-04T02:13:33.300Z,100.00
2022-11-04T02:16:15.707Z,100.00
2022-11-04T02:19:09.603Z,100.00
2022-11-04T02:22:28.131Z,100.00
2022-11-04T02:25:21.352Z,100.00
2022-11-04T02:28:20.201Z,100.00
2022-11-04T02:30:59.409Z,100.00
2022-11-04T02:33:42.898Z,100.00
2022-11-04T02:36:25.825Z,100.00
2022-11-04T02:39:07.676Z,100.00
2022-11-04T02:41:51.224Z,100.00
2022-11-04T02:44:30.068Z,100.00
2022-11-04T02:47:08.616Z,100.00
2022-11-04T02:49:46.874Z,100.00
2022-11-04T02:52:25.118Z,100.00
2022-11-04T02:55:02.429Z,100.00
2022-11-04T02:57:38.143Z,100.00
2022-11-04T03:00:11.982Z,100.00
2022-11-04T03:02:51.680Z,100.00
2022-11-04T03:05:28.582Z,100.00
2022-11-04T03:08:06.762Z,100.00
2022-11-04T03:10:42.733Z,100.00
2022-11-04T03:13:18.541Z,100.00
2022-11-04T03:15:56.042Z,100.00
2022-11-04T03:18:39.046Z,100.00
2022-11-04T03:21:15.359Z,100.00
2022-11-04T03:23:45.984Z,100.00
2022-11-04T03:26:27.048Z,100.00
2022-11-04T03:29:10.587Z,100.00
2022-11-04T03:31:48.235Z,100.00
2022-11-04T03:34:20.847Z,100.00
2022-11-04T03:36:50.855Z,100.00
2022-11-04T03:39:20.980Z,100.00
2022-11-04T03:41:57.062Z,100.00
2022-11-04T03:44:28.042Z,100.00
2022-11-04T03:46:58.219Z,100.00
2022-11-04T03:49:31.251Z,100.00
2022-11-04T03:52:01.478Z,100.00
2022-11-04T03:54:35.810Z,100.00
2022-11-04T03:57:38.098Z,100.00
2022-11-04T04:00:13.790Z,100.00
2022-11-04T04:03:05.279Z,100.00
2022-11-04T04:05:47.466Z,100.00
2022-11-04T04:08:29.355Z,100.00
2022-11-04T04:11:12.528Z,100.00
2022-11-04T04:13:55.487Z,100.00
2022-11-04T04:16:34.465Z,100.00
2022-11-04T04:19:11.391Z,100.00
2022-11-04T04:21:53.571Z,100.00
2022-11-04T04:24:43.463Z,100.00
2022-11-04T04:27:28.068Z,100.00
2022-11-04T04:29:58.550Z,100.00
2022-11-04T04:32:33.299Z,100.00
2022-11-04T04:35:15.616Z,100.00
2022-11-04T04:37:49.155Z,100.00
2022-11-04T04:40:36.894Z,100.00
2022-11-04T04:43:20.352Z,100.00
2022-11-04T04:45:56.259Z,100.00
2022-11-04T04:48:26.304Z,100.00
2022-11-04T04:51:02.188Z,100.00
2022-11-04T04:53:34.825Z,100.00
2022-11-04T04:56:04.810Z,100.00
2022-11-04T04:58:34.830Z,100.00
2022-11-04T05:01:05.945Z,100.00
2022-11-04T05:03:38.710Z,100.00
2022-11-04T05:06:11.244Z,100.00
2022-11-04T05:08:43.838Z,100.00
2022-11-04T05:11:13.902Z,100.00
2022-11-04T05:13:43.883Z,100.00
2022-11-04T05:16:14.589Z,100.00
2022-11-04T05:18:44.637Z,100.00
2022-11-04T05:21:18.079Z,100.00
2022-11-04T05:23:50.641Z,100.00
2022-11-04T05:26:20.689Z,100.00
2022-11-04T05:28:50.927Z,100.00
2022-11-04T05:31:21.242Z,100.00
2022-11-04T05:33:51.256Z,100.00
2022-11-04T05:36:21.251Z,100.00
2022-11-04T05:38:58.308Z,100.00
2022-11-04T05:41:28.770Z,100.00
2022-11-04T05:44:02.219Z,100.00
2022-11-04T05:46:33.734Z,100.00
2022-11-04T05:49:03.828Z,100.00
2022-11-04T05:51:34.205Z,100.00
2022-11-04T05:54:07.339Z,100.00
2022-11-04T05:56:37.387Z,100.00
2022-11-04T05:59:07.359Z,100.00
2022-11-04T06:01:40.780Z,100.00
2022-11-04T06:04:17.246Z,100.00
2022-11-04T06:06:47.726Z,100.00
2022-11-04T06:09:20.316Z,100.00
2022-11-04T06:11:50.301Z,100.00
2022-11-04T06:14:20.236Z,100.00
2022-11-04T06:16:50.257Z,100.00
2022-11-04T06:19:20.280Z,100.00
2022-11-04T06:21:50.374Z,100.00
2022-11-04T06:24:23.222Z,100.00
2022-11-04T06:26:53.260Z,100.00
2022-11-04T06:29:23.255Z,100.00
2022-11-04T06:31:53.228Z,100.00
2022-11-04T06:34:23.209Z,100.00
2022-11-04T06:36:53.757Z,100.00
2022-11-04T06:39:26.400Z,100.00
2022-11-04T06:41:59.532Z,100.00
2022-11-04T06:44:31.475Z,100.00
2022-11-04T06:47:02.163Z,100.00
2022-11-04T06:49:32.319Z,100.00
2022-11-04T06:52:02.602Z,100.00
2022-11-04T06:54:35.398Z,100.00
2022-11-04T06:57:05.703Z,100.00
2022-11-04T06:59:35.776Z,100.00
2022-11-04T07:02:06.000Z,100.00
2022-11-04T07:04:36.142Z,100.00
2022-11-04T07:07:06.225Z,100.00
2022-11-04T07:09:38.857Z,100.00
2022-11-04T07:12:09.033Z,100.00
2022-11-04T07:14:39.120Z,100.00
2022-11-04T07:17:09.365Z,100.00
2022-11-04T07:19:39.467Z,100.00
2022-11-04T07:22:09.691Z,100.00
2022-11-04T07:24:42.393Z,100.00
2022-11-04T07:27:12.412Z,100.00
2022-11-04T07:29:42.390Z,100.00
2022-11-04T07:32:12.707Z,100.00
2022-11-04T07:34:42.724Z,100.00
2022-11-04T07:37:12.690Z,100.00
2022-11-04T07:39:45.268Z,100.00
2022-11-04T07:42:15.258Z,100.00
2022-11-04T07:44:45.274Z,100.00
2022-11-04T07:47:15.285Z,100.00
2022-11-04T07:49:45.370Z,100.00
2022-11-04T07:52:15.674Z,100.00
2022-11-04T07:54:48.289Z,100.00
2022-11-04T07:57:18.769Z,100.00
2022-11-04T07:59:48.798Z,100.00
2022-11-04T08:02:24.799Z,100.00
2022-11-04T08:04:56.681Z,100.00
2022-11-04T08:07:27.012Z,100.00
2022-11-04T08:09:59.540Z,100.00
2022-11-04T08:12:29.606Z,100.00
2022-11-04T08:14:59.582Z,100.00
2022-11-04T08:17:30.564Z,100.00
2022-11-04T08:20:00.543Z,100.00
2022-11-04T08:22:33.097Z,100.00
2022-11-04T08:25:06.352Z,100.00
2022-11-04T08:27:37.872Z,100.00
2022-11-04T08:30:09.664Z,100.00
2022-11-04T08:32:39.706Z,100.00
2022-11-04T08:35:12.078Z,100.00
2022-11-04T08:37:42.091Z,100.00
2022-11-04T08:40:15.295Z,100.00
2022-11-04T08:42:45.302Z,100.00
2022-11-04T08:45:15.294Z,100.00
2022-11-04T08:47:45.303Z,100.00
2022-11-04T08:50:15.331Z,100.00
2022-11-04T08:52:45.726Z,100.00
2022-11-04T08:55:18.567Z,100.00
2022-11-04T08:57:48.727Z,100.00
2022-11-04T09:00:19.391Z,100.00
2022-11-04T09:02:49.841Z,100.00
2022-11-04T09:05:20.116Z,100.00
2022-11-04T09:07:50.151Z,100.00
2022-11-04T09:10:23.899Z,100.00
2022-11-04T09:12:53.897Z,100.00
2022-11-04T09:15:23.904Z,100.00
2022-11-04T09:17:53.910Z,100.00
2022-11-04T09:20:24.000Z,100.00
2022-11-04T09:22:54.391Z,100.00
2022-11-04T09:25:27.023Z,100.00
2022-11-04T09:27:57.251Z,100.00
2022-11-04T09:30:27.600Z,100.00
2022-11-04T09:32:58.287Z,100.00
2022-11-04T09:35:29.515Z,100.00
2022-11-04T09:38:02.150Z,100.00
2022-11-04T09:40:40.168Z,100.00
2022-11-04T09:43:32.291Z,100.00
2022-11-04T09:46:04.547Z,100.00
2022-11-04T09:48:43.212Z,100.00
2022-11-04T09:51:32.454Z,100.00
2022-11-04T09:54:11.852Z,100.00
2022-11-04T09:56:51.368Z,100.00
2022-11-04T09:59:28.869Z,100.00
2022-11-04T10:02:22.490Z,100.00
2022-11-04T10:05:11.494Z,100.00
2022-11-04T10:08:05.296Z,100.00
2022-11-04T10:10:46.117Z,100.00
2022-11-04T10:13:33.988Z,100.00
2022-11-04T10:16:26.952Z,100.00
2022-11-04T10:19:33.284Z,100.00
2022-11-04T10:22:13.372Z,100.00
2022-11-04T10:24:51.351Z,100.00
2022-11-04T10:27:27.976Z,100.00
2022-11-04T10:30:05.004Z,100.00
2022-11-04T10:32:46.077Z,100.00
2022-11-04T10:35:31.067Z,100.00
2022-11-04T10:38:18.941Z,100.00
2022-11-04T10:40:53.405Z,100.00
2022-11-04T10:43:35.854Z,100.00
2022-11-04T10:46:38.876Z,100.00
2022-11-04T10:49:39.601Z,100.00
2022-11-04T10:52:11.813Z,100.00
2022-11-04T10:54:45.797Z,100.00
2022-11-04T10:57:20.644Z,100.00
2022-11-04T10:59:57.546Z,100.00
2022-11-04T11:02:50.157Z,99.53
2022-11-04T11:05:28.868Z,100.00
2022-11-04T11:08:01.130Z,97.47
2022-11-04T11:10:35.316Z,97.22
2022-11-04T11:13:08.689Z,97.47
2022-11-04T11:15:42.352Z,96.32
2022-11-04T11:18:22.445Z,90.16
2022-11-04T11:21:07.718Z,92.95
2022-11-04T11:23:47.572Z,92.74
2022-11-04T11:26:22.391Z,84.43
2022-11-04T11:28:59.402Z,86.05
2022-11-04T11:31:39.252Z,93.24
2022-11-04T11:34:26.499Z,90.72
2022-11-04T11:36:59.198Z,87.82
2022-11-04T11:39:32.842Z,87.44
2022-11-04T11:42:07.531Z,84.43
2022-11-04T11:44:44.638Z,80.84
2022-11-04T11:47:24.677Z,81.87
2022-11-04T11:50:18.439Z,82.61
2022-11-04T11:52:49.778Z,78.86
2022-11-04T11:55:26.416Z,78.32
2022-11-04T12:01:22.093Z,76.85
2022-11-04T12:10:10.002Z,91.44
2022-11-04T12:13:05.791Z,100.00
2022-11-04T12:15:51.588Z,100.00
2022-11-04T12:18:59.232Z,100.00
2022-11-04T12:21:36.584Z,97.76
2022-11-04T12:24:27.616Z,100.00
2022-11-04T12:27:12.909Z,99.70
2022-11-04T12:30:03.505Z,97.29
2022-11-04T12:32:50.905Z,95.53
2022-11-04T12:35:49.464Z,86.41
2022-11-04T12:38:45.571Z,83.21
2022-11-04T12:41:52.311Z,85.97
2022-11-04T12:44:35.915Z,77.77
2022-11-04T12:47:26.563Z,81.76
2022-11-04T12:50:42.827Z,83.59
2022-11-04T12:53:51.130Z,80.36
2022-11-04T12:56:37.617Z,77.87
2022-11-04T12:59:47.012Z,75.86
2022-11-04T13:02:28.423Z,67.67
2022-11-04T13:05:10.238Z,68.50
2022-11-04T13:07:53.080Z,69.85
2022-11-04T13:10:30.195Z,68.24
2022-11-04T13:13:06.202Z,66.87
2022-11-04T13:15:48.195Z,68.43
2022-11-04T13:18:22.547Z,68.01
2022-11-04T13:21:02.979Z,70.58
2022-11-04T13:23:44.170Z,70.33
2022-11-04T13:26:19.364Z,77.70
2022-11-04T13:29:04.346Z,75.37
2022-11-04T13:31:52.444Z,69.95
2022-11-04T13:34:39.460Z,66.17
2022-11-04T13:37:21.427Z,64.27
2022-11-04T13:39:58.141Z,63.04
2022-11-04T13:43:23.480Z,63.37
2022-11-04T13:46:00.621Z,66.61
2022-11-04T13:48:38.027Z,68.14
2022-11-04T13:51:13.421Z,76.09
2022-11-04T13:53:48.202Z,72.82
2022-11-04T13:56:35.470Z,72.84
2022-11-04T13:59:23.149Z,72.07
2022-11-04T14:02:45.347Z,71.26
2022-11-04T14:06:05.276Z,77.92
2022-11-04T14:08:36.003Z,79.23
2022-11-04T14:11:14.111Z,78.85
2022-11-04T14:14:13.490Z,78.94
2022-11-04T14:16:48.399Z,81.08
2022-11-04T14:20:03.395Z,80.20
2022-11-04T14:22:50.877Z,79.33
2022-11-04T14:25:31.046Z,81.03
2022-11-04T14:28:04.457Z,81.32
2022-11-04T14:30:52.297Z,84.09
2022-11-04T14:33:36.417Z,85.96
2022-11-04T14:36:34.931Z,93.09
2022-11-04T14:39:26.732Z,100.00
2022-11-04T14:42:01.777Z,100.00
2022-11-04T14:44:49.633Z,100.00
2022-11-04T14:47:25.421Z,100.00
2022-11-04T14:50:07.747Z,100.00
2022-11-04T14:52:50.783Z,100.00
2022-11-04T14:55:25.130Z,100.00
2022-11-04T14:57:57.627Z,100.00
2022-11-04T15:00:37.973Z,100.00
2022-11-04T15:06:16.415Z,100.00
2022-11-04T15:08:49.210Z,100.00
2022-11-04T15:11:43.567Z,100.00
2022-11-04T15:14:20.650Z,100.00
2022-11-04T15:16:55.177Z,100.00
2022-11-04T15:19:34.595Z,100.00
2022-11-04T15:22:07.325Z,100.00
2022-11-04T15:24:40.608Z,100.00
2022-11-04T15:27:18.435Z,100.00
2022-11-04T15:29:57.501Z,100.00
2022-11-04T15:32:28.778Z,100.00
2022-11-04T15:35:02.115Z,100.00
2022-11-04T15:37:34.092Z,100.00
2022-11-04T15:40:09.836Z,100.00
2022-11-04T15:42:42.864Z,100.00
2022-11-04T15:45:38.174Z,100.00
2022-11-04T15:48:31.375Z,100.00
2022-11-04T15:51:16.350Z,100.00
2022-11-04T15:53:57.426Z,100.00
2022-11-04T15:56:34.850Z,100.00
2022-11-04T15:59:05.508Z,100.00
2022-11-04T16:01:35.739Z,100.00
2022-11-04T16:04:09.075Z,100.00
2022-11-04T16:06:41.731Z,100.00
2022-11-04T16:09:29.912Z,100.00
2022-11-04T16:12:16.467Z,100.00
2022-11-04T16:14:54.912Z,100.00
2022-11-04T16:17:26.570Z,100.00
2022-11-04T16:20:01.724Z,100.00
2022-11-04T16:22:37.185Z,100.00
2022-11-04T16:25:12.577Z,100.00
2022-11-04T16:27:49.222Z,100.00
2022-11-04T16:30:23.978Z,100.00
2022-11-04T16:32:56.724Z,100.00
2022-11-04T16:35:29.224Z,100.00
2022-11-04T16:38:03.299Z,100.00
2022-11-04T16:40:35.914Z,100.00
2022-11-04T16:43:08.812Z,100.00
2022-11-04T16:45:40.875Z,100.00
2022-11-04T16:48:21.191Z,100.00
2022-11-04T16:50:51.231Z,100.00
2022-11-04T16:53:21.693Z,100.00
2022-11-04T16:55:51.919Z,100.00
2022-11-04T16:58:24.677Z,100.00
2022-11-04T17:00:55.007Z,100.00
2022-11-04T17:03:25.203Z,100.00
2022-11-04T17:05:58.584Z,100.00
2022-11-04T17:08:29.595Z,100.00
2022-11-04T17:10:59.743Z,100.00
2022-11-04T17:13:36.318Z,100.00
2022-11-04T17:16:08.173Z,100.00
2022-11-04T17:18:39.479Z,100.00
2022-11-04T17:21:12.330Z,100.00
2022-11-04T17:23:42.427Z,100.00
2022-11-04T17:26:14.432Z,100.00
2022-11-04T17:28:47.058Z,100.00
2022-11-04T17:31:25.450Z,100.00
2022-11-04T17:33:55.429Z,100.00
2022-11-04T17:36:26.144Z,100.00
2022-11-04T17:38:56.249Z,100.00
2022-11-04T17:41:38.768Z,100.00
2022-11-04T17:44:11.355Z,100.00
2022-11-04T17:46:41.855Z,100.00
2022-11-04T17:49:17.496Z,100.00
2022-11-04T17:51:50.736Z,100.00
2022-11-04T17:54:21.117Z,100.00
2022-11-04T17:56:51.901Z,100.00
2022-11-04T17:59:24.941Z,100.00
2022-11-04T18:01:55.864Z,100.00
2022-11-04T18:04:26.755Z,100.00
2022-11-04T18:07:02.339Z,100.00
2022-11-04T18:09:34.864Z,100.00
2022-11-04T18:12:17.707Z,100.00
2022-11-04T18:14:50.346Z,100.00
2022-11-04T18:17:24.608Z,100.00
2022-11-04T18:19:55.404Z,100.00
2022-11-04T18:22:25.423Z,100.00
2022-11-04T18:24:55.811Z,100.00
2022-11-04T18:27:25.979Z,100.00
2022-11-04T18:29:58.607Z,100.00
2022-11-04T18:32:28.987Z,100.00
2022-11-04T18:35:03.213Z,100.00
2022-11-04T18:37:33.271Z,100.00
2022-11-04T18:40:03.247Z,100.00
2022-11-04T18:42:33.837Z,100.00
2022-11-04T18:45:07.258Z,100.00
2022-11-04T18:47:37.577Z,100.00
2022-11-04T18:50:08.869Z,100.00
2022-11-04T18:52:38.886Z,100.00
2022-11-04T18:55:11.452Z,100.00
2022-11-04T18:57:41.529Z,100.00
2022-11-04T19:00:17.370Z,100.00
2022-11-04T19:02:47.692Z,100.00
2022-11-04T19:05:17.865Z,100.00
2022-11-04T19:07:47.970Z,100.00
2022-11-04T19:10:18.045Z,100.00
2022-11-04T19:13:00.517Z,100.00
2022-11-04T19:15:33.245Z,100.00
2022-11-04T19:18:03.287Z,100.00
2022-11-04T19:20:33.457Z,100.00
2022-11-04T19:23:03.585Z,100.00
2022-11-04T19:25:34.040Z,100.00
2022-11-04T19:28:31.950Z,100.00
2022-11-04T19:31:05.144Z,100.00
2022-11-04T19:33:35.791Z,100.00
2022-11-04T19:36:07.698Z,100.00
2022-11-04T19:38:37.971Z,100.00
2022-11-04T19:41:33.040Z,100.00
2022-11-04T19:44:04.306Z,100.00
2022-11-04T19:46:37.914Z,100.00
2022-11-04T19:49:10.926Z,100.00
2022-11-04T19:51:42.200Z,100.00
2022-11-04T19:54:12.707Z,100.00
2022-11-04T19:56:43.913Z,100.00
2022-11-04T19:59:15.604Z,100.00
2022-11-04T20:01:48.609Z,100.00
2022-11-04T20:04:19.526Z,100.00
2022-11-04T20:06:49.586Z,100.00
2022-11-04T20:09:20.353Z,100.00
2022-11-04T20:12:02.827Z,100.00
2022-11-04T20:14:32.936Z,100.00
2022-11-04T20:17:07.538Z,100.00
2022-11-04T20:19:38.002Z,100.00
2022-11-04T20:22:08.086Z,100.00
2022-11-04T20:24:38.067Z,100.00
2022-11-04T20:27:08.249Z,100.00
2022-11-04T20:29:38.236Z,100.00
2022-11-04T20:32:11.587Z,100.00
2022-11-04T20:34:42.018Z,100.00
2022-11-04T20:37:12.637Z,100.00
2022-11-04T20:39:42.743Z,100.00
2022-11-04T20:42:12.899Z,100.00
2022-11-04T20:44:43.013Z,100.00
2022-11-04T20:47:17.425Z,100.00
2022-11-04T20:49:47.586Z,100.00
2022-11-04T20:52:17.547Z,100.00
2022-11-04T20:54:47.661Z,100.00
2022-11-04T20:57:17.659Z,100.00
2022-11-04T20:59:47.640Z,100.00
2022-11-04T21:02:22.049Z,100.00
2022-11-04T21:04:52.156Z,100.00
2022-11-04T21:07:22.243Z,100.00
2022-11-04T21:09:52.990Z,100.00
2022-11-04T21:12:22.964Z,100.00
2022-11-04T21:14:53.111Z,100.00
2022-11-04T21:17:25.693Z,100.00
2022-11-04T21:19:56.488Z,100.00
2022-11-04T21:22:26.468Z,100.00
2022-11-04T21:24:56.451Z,100.00
2022-11-04T21:27:26.457Z,100.00
2022-11-04T21:29:56.582Z,100.00
2022-11-04T21:32:29.235Z,100.00
2022-11-04T21:34:59.290Z,100.00
2022-11-04T21:37:31.520Z,100.00
2022-11-04T21:40:04.747Z,100.00
2022-11-04T21:42:34.745Z,100.00
2022-11-04T21:45:04.745Z,100.00
2022-11-04T21:47:37.702Z,100.00
2022-11-04T21:50:13.784Z,100.00
2022-11-04T21:52:47.886Z,100.00
2022-11-04T21:55:18.450Z,100.00
2022-11-04T21:57:48.583Z,100.00
2022-11-04T22:00:19.798Z,100.00
2022-11-04T22:02:53.544Z,100.00
2022-11-04T22:05:23.745Z,100.00
2022-11-04T22:08:06.217Z,100.00
2022-11-04T22:10:39.189Z,100.00
2022-11-04T22:13:09.689Z,100.00
2022-11-04T22:15:52.294Z,100.00
2022-11-04T22:18:24.840Z,100.00
2022-11-04T22:20:56.501Z,100.00
2022-11-04T22:23:26.867Z,100.00
2022-11-04T22:26:03.152Z,100.00
2022-11-04T22:28:34.201Z,100.00
2022-11-04T22:31:09.762Z,100.00
2022-11-04T22:33:42.480Z,100.00
2022-11-04T22:36:14.473Z,100.00
2022-11-04T22:38:45.859Z,100.00
2022-11-04T22:41:19.222Z,100.00
2022-11-04T22:43:49.275Z,100.00
2022-11-04T22:46:23.251Z,100.00
2022-11-04T22:48:55.878Z,100.00
2022-11-04T22:51:26.293Z,100.00
2022-11-04T22:54:02.851Z,100.00
2022-11-04T22:56:36.649Z,100.00
2022-11-04T22:59:07.882Z,100.00
2022-11-04T23:01:38.676Z,100.00
2022-11-04T23:04:12.324Z,100.00
2022-11-04T23:06:42.485Z,100.00
2022-11-04T23:09:15.510Z,100.00
2022-11-04T23:11:58.194Z,100.00
2022-11-04T23:14:49.273Z,100.00
2022-11-04T23:17:35.262Z,100.00
2022-11-04T23:20:12.645Z,100.00
2022-11-04T23:22:55.681Z,100.00
2022-11-04T23:25:26.904Z,100.00
2022-11-04T23:28:11.100Z,100.00
2022-11-04T23:30:44.051Z,100.00
2022-11-04T23:33:16.807Z,100.00
2022-11-04T23:36:04.624Z,100.00
2022-11-04T23:38:35.903Z,100.00
2022-11-04T23:41:22.331Z,100.00
2022-11-04T23:43:52.472Z,100.00
2022-11-04T23:46:41.121Z,100.00
2022-11-04T23:49:26.151Z,100.00
2022-11-04T23:52:11.283Z,100.00
2022-11-04T23:54:53.803Z,100.00
2022-11-04T23:57:36.317Z,100.00
